sensor_id;sensor_type;location;lat;lon;timestamp;temperature;humidity
63899;HTU21D;50070;-32.946;-60.652;2024-03-06T00:01:55;26.56;56.66
63899;HTU21D;50070;-32.946;-60.652;2024-03-06T00:04:22;26.48;57.44
63899;HTU21D;50070;-32.946;-60.652;2024-03-06T00:06:48;26.54;57.58
63899;HTU21D;50070;-32.946;-60.652;2024-03-06T00:09:18;26.64;56.93
63899;HTU21D;50070;-32.946;-60.652;2024-03-06T00:11:45;26.48;57.92
63899;HTU21D;50070;-32.946;-60.652;2024-03-06T00:14:11;26.49;58.17
63899;HTU21D;50070;-32.946;-60.652;2024-03-06T00:16:42;26.55;56.77
63899;HTU21D;50070;-32.946;-60.652;2024-03-06T00:19:09;26.53;56.51
63899;HTU21D;50070;-32.946;-60.652;2024-03-06T00:21:36;26.36;57.54
63899;HTU21D;50070;-32.946;-60.652;2024-03-06T00:24:03;26.33;57.27
63899;HTU21D;50070;-32.946;-60.652;2024-03-06T00:26:30;26.45;56.84
63899;HTU21D;50070;-32.946;-60.652;2024-03-06T00:28:57;26.37;56.74
63899;HTU21D;50070;-32.946;-60.652;2024-03-06T00:31:23;26.21;58.28
63899;HTU21D;50070;-32.946;-60.652;2024-03-06T00:33:50;26.42;58.80
63899;HTU21D;50070;-32.946;-60.652;2024-03-06T00:36:16;26.21;59.57
63899;HTU21D;50070;-32.946;-60.652;2024-03-06T00:38:43;26.41;58.68
63899;HTU21D;50070;-32.946;-60.652;2024-03-06T00:41:10;26.39;57.19
63899;HTU21D;50070;-32.946;-60.652;2024-03-06T00:43:37;26.37;57.76
63899;HTU21D;50070;-32.946;-60.652;2024-03-06T00:46:03;26.37;57.83
63899;HTU21D;50070;-32.946;-60.652;2024-03-06T00:48:30;26.07;59.12
63899;HTU21D;50070;-32.946;-60.652;2024-03-06T00:50:56;26.23;58.66
63899;HTU21D;50070;-32.946;-60.652;2024-03-06T00:53:23;26.30;59.32
63899;HTU21D;50070;-32.946;-60.652;2024-03-06T00:55:50;26.10;61.32
63899;HTU21D;50070;-32.946;-60.652;2024-03-06T00:58:17;26.03;62.71
63899;HTU21D;50070;-32.946;-60.652;2024-03-06T01:00:44;26.17;63.25
63899;HTU21D;50070;-32.946;-60.652;2024-03-06T01:03:11;25.83;67.89
63899;HTU21D;50070;-32.946;-60.652;2024-03-06T01:05:37;25.60;74.88
63899;HTU21D;50070;-32.946;-60.652;2024-03-06T01:08:04;25.65;75.63
63899;HTU21D;50070;-32.946;-60.652;2024-03-06T01:10:31;25.68;75.17
63899;HTU21D;50070;-32.946;-60.652;2024-03-06T01:12:58;25.50;75.99
63899;HTU21D;50070;-32.946;-60.652;2024-03-06T01:15:25;25.75;73.44
63899;HTU21D;50070;-32.946;-60.652;2024-03-06T01:17:51;25.80;72.74
63899;HTU21D;50070;-32.946;-60.652;2024-03-06T01:20:18;25.59;74.03
63899;HTU21D;50070;-32.946;-60.652;2024-03-06T01:22:45;25.65;72.24
63899;HTU21D;50070;-32.946;-60.652;2024-03-06T01:25:12;25.59;73.03
63899;HTU21D;50070;-32.946;-60.652;2024-03-06T01:27:39;25.75;72.09
63899;HTU21D;50070;-32.946;-60.652;2024-03-06T01:30:07;25.71;72.45
63899;HTU21D;50070;-32.946;-60.652;2024-03-06T01:32:34;25.77;71.34
63899;HTU21D;50070;-32.946;-60.652;2024-03-06T01:35:00;25.76;71.78
63899;HTU21D;50070;-32.946;-60.652;2024-03-06T01:37:27;25.82;70.42
63899;HTU21D;50070;-32.946;-60.652;2024-03-06T01:39:54;25.69;71.90
63899;HTU21D;50070;-32.946;-60.652;2024-03-06T01:42:21;25.96;69.71
63899;HTU21D;50070;-32.946;-60.652;2024-03-06T01:44:48;25.94;70.50
63899;HTU21D;50070;-32.946;-60.652;2024-03-06T01:47:15;25.93;69.70
63899;HTU21D;50070;-32.946;-60.652;2024-03-06T01:49:42;25.88;70.46
63899;HTU21D;50070;-32.946;-60.652;2024-03-06T01:52:12;25.56;74.64
63899;HTU21D;50070;-32.946;-60.652;2024-03-06T01:54:39;25.49;75.99
63899;HTU21D;50070;-32.946;-60.652;2024-03-06T01:57:08;25.62;74.80
63899;HTU21D;50070;-32.946;-60.652;2024-03-06T01:59:35;25.73;74.23
63899;HTU21D;50070;-32.946;-60.652;2024-03-06T02:02:02;25.67;73.44
63899;HTU21D;50070;-32.946;-60.652;2024-03-06T02:04:29;25.52;74.64
63899;HTU21D;50070;-32.946;-60.652;2024-03-06T02:06:56;25.64;73.64
63899;HTU21D;50070;-32.946;-60.652;2024-03-06T02:09:24;25.63;71.75
63899;HTU21D;50070;-32.946;-60.652;2024-03-06T02:11:50;25.72;71.57
63899;HTU21D;50070;-32.946;-60.652;2024-03-06T02:14:17;25.63;72.76
63899;HTU21D;50070;-32.946;-60.652;2024-03-06T02:16:43;25.66;73.95
63899;HTU21D;50070;-32.946;-60.652;2024-03-06T02:19:10;25.58;74.55
63899;HTU21D;50070;-32.946;-60.652;2024-03-06T02:21:37;25.60;74.49
63899;HTU21D;50070;-32.946;-60.652;2024-03-06T02:24:04;25.34;76.81
63899;HTU21D;50070;-32.946;-60.652;2024-03-06T02:26:31;25.56;75.12
63899;HTU21D;50070;-32.946;-60.652;2024-03-06T02:28:59;25.25;77.29
63899;HTU21D;50070;-32.946;-60.652;2024-03-06T02:31:26;25.17;78.19
63899;HTU21D;50070;-32.946;-60.652;2024-03-06T02:33:53;25.02;78.53
63899;HTU21D;50070;-32.946;-60.652;2024-03-06T02:36:20;25.09;78.52
63899;HTU21D;50070;-32.946;-60.652;2024-03-06T02:38:48;25.16;77.84
63899;HTU21D;50070;-32.946;-60.652;2024-03-06T02:41:15;25.34;75.80
63899;HTU21D;50070;-32.946;-60.652;2024-03-06T02:43:42;25.36;75.90
63899;HTU21D;50070;-32.946;-60.652;2024-03-06T02:46:09;25.25;76.53
63899;HTU21D;50070;-32.946;-60.652;2024-03-06T02:48:35;25.17;78.12
63899;HTU21D;50070;-32.946;-60.652;2024-03-06T02:51:02;25.06;78.06
63899;HTU21D;50070;-32.946;-60.652;2024-03-06T02:53:29;25.06;76.79
63899;HTU21D;50070;-32.946;-60.652;2024-03-06T02:55:56;25.27;75.64
63899;HTU21D;50070;-32.946;-60.652;2024-03-06T02:58:23;24.91;77.82
63899;HTU21D;50070;-32.946;-60.652;2024-03-06T03:00:49;24.90;79.07
63899;HTU21D;50070;-32.946;-60.652;2024-03-06T03:03:16;25.05;77.24
63899;HTU21D;50070;-32.946;-60.652;2024-03-06T03:05:43;24.85;79.36
63899;HTU21D;50070;-32.946;-60.652;2024-03-06T03:08:10;24.93;78.93
63899;HTU21D;50070;-32.946;-60.652;2024-03-06T03:10:37;24.95;79.35
63899;HTU21D;50070;-32.946;-60.652;2024-03-06T03:13:03;25.00;80.01
63899;HTU21D;50070;-32.946;-60.652;2024-03-06T03:15:31;25.03;79.47
63899;HTU21D;50070;-32.946;-60.652;2024-03-06T03:17:58;24.73;81.28
63899;HTU21D;50070;-32.946;-60.652;2024-03-06T03:20:25;24.80;81.43
63899;HTU21D;50070;-32.946;-60.652;2024-03-06T03:22:52;24.86;81.09
63899;HTU21D;50070;-32.946;-60.652;2024-03-06T03:25:19;24.82;81.36
63899;HTU21D;50070;-32.946;-60.652;2024-03-06T03:27:47;24.46;84.15
63899;HTU21D;50070;-32.946;-60.652;2024-03-06T03:30:14;24.61;83.21
63899;HTU21D;50070;-32.946;-60.652;2024-03-06T03:32:42;24.41;84.90
63899;HTU21D;50070;-32.946;-60.652;2024-03-06T03:35:09;24.65;83.61
63899;HTU21D;50070;-32.946;-60.652;2024-03-06T03:37:35;24.41;85.64
63899;HTU21D;50070;-32.946;-60.652;2024-03-06T03:40:02;24.62;84.60
63899;HTU21D;50070;-32.946;-60.652;2024-03-06T03:42:29;24.43;85.49
63899;HTU21D;50070;-32.946;-60.652;2024-03-06T03:44:56;24.44;86.18
63899;HTU21D;50070;-32.946;-60.652;2024-03-06T03:47:22;24.17;88.44
63899;HTU21D;50070;-32.946;-60.652;2024-03-06T03:49:49;24.04;89.83
63899;HTU21D;50070;-32.946;-60.652;2024-03-06T03:52:16;23.98;90.16
63899;HTU21D;50070;-32.946;-60.652;2024-03-06T03:54:43;24.20;89.09
63899;HTU21D;50070;-32.946;-60.652;2024-03-06T03:57:10;23.91;91.67
63899;HTU21D;50070;-32.946;-60.652;2024-03-06T03:59:38;24.14;90.45
63899;HTU21D;50070;-32.946;-60.652;2024-03-06T04:02:07;24.21;90.40
63899;HTU21D;50070;-32.946;-60.652;2024-03-06T04:04:34;24.32;89.99
63899;HTU21D;50070;-32.946;-60.652;2024-03-06T04:07:01;24.28;90.47
63899;HTU21D;50070;-32.946;-60.652;2024-03-06T04:09:28;24.23;91.46
63899;HTU21D;50070;-32.946;-60.652;2024-03-06T04:11:55;23.82;94.26
63899;HTU21D;50070;-32.946;-60.652;2024-03-06T04:14:22;23.74;95.25
63899;HTU21D;50070;-32.946;-60.652;2024-03-06T04:16:49;24.10;92.64
63899;HTU21D;50070;-32.946;-60.652;2024-03-06T04:19:15;24.16;92.20
63899;HTU21D;50070;-32.946;-60.652;2024-03-06T04:21:43;23.88;92.19
63899;HTU21D;50070;-32.946;-60.652;2024-03-06T04:24:10;23.76;91.37
63899;HTU21D;50070;-32.946;-60.652;2024-03-06T04:26:36;23.95;89.79
63899;HTU21D;50070;-32.946;-60.652;2024-03-06T04:29:03;23.82;89.77
63899;HTU21D;50070;-32.946;-60.652;2024-03-06T04:31:30;23.77;89.54
63899;HTU21D;50070;-32.946;-60.652;2024-03-06T04:33:57;23.84;88.76
63899;HTU21D;50070;-32.946;-60.652;2024-03-06T04:36:24;23.64;90.74
63899;HTU21D;50070;-32.946;-60.652;2024-03-06T04:38:50;23.44;89.82
63899;HTU21D;50070;-32.946;-60.652;2024-03-06T04:41:19;23.43;88.94
63899;HTU21D;50070;-32.946;-60.652;2024-03-06T04:43:45;23.57;87.70
63899;HTU21D;50070;-32.946;-60.652;2024-03-06T04:46:13;23.42;85.68
63899;HTU21D;50070;-32.946;-60.652;2024-03-06T04:48:42;23.66;84.24
63899;HTU21D;50070;-32.946;-60.652;2024-03-06T04:51:10;23.54;82.33
63899;HTU21D;50070;-32.946;-60.652;2024-03-06T04:53:36;23.47;82.33
63899;HTU21D;50070;-32.946;-60.652;2024-03-06T04:56:03;23.54;81.77
63899;HTU21D;50070;-32.946;-60.652;2024-03-06T04:58:29;23.46;82.66
63899;HTU21D;50070;-32.946;-60.652;2024-03-06T05:00:56;23.38;83.33
63899;HTU21D;50070;-32.946;-60.652;2024-03-06T05:03:23;23.49;83.03
63899;HTU21D;50070;-32.946;-60.652;2024-03-06T05:05:50;23.01;86.97
63899;HTU21D;50070;-32.946;-60.652;2024-03-06T05:08:16;22.73;89.49
63899;HTU21D;50070;-32.946;-60.652;2024-03-06T05:10:43;22.67;90.65
63899;HTU21D;50070;-32.946;-60.652;2024-03-06T05:13:10;22.43;93.47
63899;HTU21D;50070;-32.946;-60.652;2024-03-06T05:15:37;22.56;93.69
63899;HTU21D;50070;-32.946;-60.652;2024-03-06T05:18:05;22.62;94.19
63899;HTU21D;50070;-32.946;-60.652;2024-03-06T05:20:32;22.66;94.46
63899;HTU21D;50070;-32.946;-60.652;2024-03-06T05:22:59;22.95;92.95
63899;HTU21D;50070;-32.946;-60.652;2024-03-06T05:25:26;22.95;92.59
63899;HTU21D;50070;-32.946;-60.652;2024-03-06T05:27:54;22.65;94.46
63899;HTU21D;50070;-32.946;-60.652;2024-03-06T05:30:21;22.85;93.67
63899;HTU21D;50070;-32.946;-60.652;2024-03-06T05:32:48;22.96;93.11
63899;HTU21D;50070;-32.946;-60.652;2024-03-06T05:35:15;22.62;95.81
63899;HTU21D;50070;-32.946;-60.652;2024-03-06T05:37:42;22.39;97.52
63899;HTU21D;50070;-32.946;-60.652;2024-03-06T05:40:10;22.49;95.75
63899;HTU21D;50070;-32.946;-60.652;2024-03-06T05:42:36;22.49;95.88
63899;HTU21D;50070;-32.946;-60.652;2024-03-06T05:45:03;22.25;96.81
63899;HTU21D;50070;-32.946;-60.652;2024-03-06T05:47:36;22.34;97.53
63899;HTU21D;50070;-32.946;-60.652;2024-03-06T05:50:07;22.21;97.84
63899;HTU21D;50070;-32.946;-60.652;2024-03-06T05:52:34;22.60;95.43
63899;HTU21D;50070;-32.946;-60.652;2024-03-06T05:55:01;22.36;95.47
63899;HTU21D;50070;-32.946;-60.652;2024-03-06T05:57:28;22.21;96.55
63899;HTU21D;50070;-32.946;-60.652;2024-03-06T05:59:54;22.12;97.66
63899;HTU21D;50070;-32.946;-60.652;2024-03-06T06:02:21;21.90;98.91
63899;HTU21D;50070;-32.946;-60.652;2024-03-06T06:04:48;21.89;98.97
63899;HTU21D;50070;-32.946;-60.652;2024-03-06T06:07:15;21.68;99.53
63899;HTU21D;50070;-32.946;-60.652;2024-03-06T06:09:41;21.66;99.44
63899;HTU21D;50070;-32.946;-60.652;2024-03-06T06:12:08;21.76;98.80
63899;HTU21D;50070;-32.946;-60.652;2024-03-06T06:14:35;21.79;98.15
63899;HTU21D;50070;-32.946;-60.652;2024-03-06T06:17:02;21.99;97.22
63899;HTU21D;50070;-32.946;-60.652;2024-03-06T06:19:29;21.82;97.89
63899;HTU21D;50070;-32.946;-60.652;2024-03-06T06:21:56;21.94;96.73
63899;HTU21D;50070;-32.946;-60.652;2024-03-06T06:24:23;22.10;96.26
63899;HTU21D;50070;-32.946;-60.652;2024-03-06T06:26:50;22.16;95.84
63899;HTU21D;50070;-32.946;-60.652;2024-03-06T06:29:17;22.09;96.81
63899;HTU21D;50070;-32.946;-60.652;2024-03-06T06:31:45;22.04;97.28
63899;HTU21D;50070;-32.946;-60.652;2024-03-06T06:34:11;22.10;96.25
63899;HTU21D;50070;-32.946;-60.652;2024-03-06T06:36:38;21.77;98.19
63899;HTU21D;50070;-32.946;-60.652;2024-03-06T06:39:07;21.72;98.93
63899;HTU21D;50070;-32.946;-60.652;2024-03-06T06:41:34;21.97;98.05
63899;HTU21D;50070;-32.946;-60.652;2024-03-06T06:44:01;22.05;97.36
63899;HTU21D;50070;-32.946;-60.652;2024-03-06T06:46:28;21.79;96.78
63899;HTU21D;50070;-32.946;-60.652;2024-03-06T06:48:55;21.73;98.15
63899;HTU21D;50070;-32.946;-60.652;2024-03-06T06:51:22;22.09;96.00
63899;HTU21D;50070;-32.946;-60.652;2024-03-06T06:53:49;21.90;96.33
63899;HTU21D;50070;-32.946;-60.652;2024-03-06T06:56:15;21.75;96.97
63899;HTU21D;50070;-32.946;-60.652;2024-03-06T06:58:42;21.77;96.43
63899;HTU21D;50070;-32.946;-60.652;2024-03-06T07:01:09;21.77;92.98
63899;HTU21D;50070;-32.946;-60.652;2024-03-06T07:03:36;21.82;91.91
63899;HTU21D;50070;-32.946;-60.652;2024-03-06T07:06:03;21.78;90.67
63899;HTU21D;50070;-32.946;-60.652;2024-03-06T07:08:30;21.72;90.36
63899;HTU21D;50070;-32.946;-60.652;2024-03-06T07:10:57;21.63;90.37
63899;HTU21D;50070;-32.946;-60.652;2024-03-06T07:13:24;21.82;88.51
63899;HTU21D;50070;-32.946;-60.652;2024-03-06T07:15:51;21.72;89.61
63899;HTU21D;50070;-32.946;-60.652;2024-03-06T07:18:18;21.55;89.63
63899;HTU21D;50070;-32.946;-60.652;2024-03-06T07:20:45;21.58;87.99
63899;HTU21D;50070;-32.946;-60.652;2024-03-06T07:23:13;21.53;87.70
63899;HTU21D;50070;-32.946;-60.652;2024-03-06T07:25:40;21.52;86.99
63899;HTU21D;50070;-32.946;-60.652;2024-03-06T07:28:06;21.66;86.36
63899;HTU21D;50070;-32.946;-60.652;2024-03-06T07:30:33;21.44;86.67
63899;HTU21D;50070;-32.946;-60.652;2024-03-06T07:33:01;21.61;85.97
63899;HTU21D;50070;-32.946;-60.652;2024-03-06T07:35:28;21.61;86.24
63899;HTU21D;50070;-32.946;-60.652;2024-03-06T07:37:55;21.45;86.39
63899;HTU21D;50070;-32.946;-60.652;2024-03-06T07:40:21;21.38;83.81
63899;HTU21D;50070;-32.946;-60.652;2024-03-06T07:42:48;21.52;82.84
63899;HTU21D;50070;-32.946;-60.652;2024-03-06T07:45:15;21.70;80.79
63899;HTU21D;50070;-32.946;-60.652;2024-03-06T07:47:42;21.53;78.99
63899;HTU21D;50070;-32.946;-60.652;2024-03-06T07:50:09;21.34;80.26
63899;HTU21D;50070;-32.946;-60.652;2024-03-06T07:52:37;21.37;78.30
63899;HTU21D;50070;-32.946;-60.652;2024-03-06T07:55:04;21.11;80.75
63899;HTU21D;50070;-32.946;-60.652;2024-03-06T07:57:31;21.28;80.73
63899;HTU21D;50070;-32.946;-60.652;2024-03-06T07:59:58;21.19;80.19
63899;HTU21D;50070;-32.946;-60.652;2024-03-06T08:02:25;21.13;81.00
63899;HTU21D;50070;-32.946;-60.652;2024-03-06T08:04:51;21.10;80.99
63899;HTU21D;50070;-32.946;-60.652;2024-03-06T08:07:18;21.21;81.78
63899;HTU21D;50070;-32.946;-60.652;2024-03-06T08:09:45;21.06;81.95
63899;HTU21D;50070;-32.946;-60.652;2024-03-06T08:12:11;21.19;81.64
63899;HTU21D;50070;-32.946;-60.652;2024-03-06T08:14:38;20.95;81.17
63899;HTU21D;50070;-32.946;-60.652;2024-03-06T08:17:05;21.05;80.35
63899;HTU21D;50070;-32.946;-60.652;2024-03-06T08:19:32;21.19;79.83
63899;HTU21D;50070;-32.946;-60.652;2024-03-06T08:21:58;20.98;79.21
63899;HTU21D;50070;-32.946;-60.652;2024-03-06T08:24:25;20.99;81.43
63899;HTU21D;50070;-32.946;-60.652;2024-03-06T08:26:52;21.01;82.20
63899;HTU21D;50070;-32.946;-60.652;2024-03-06T08:29:19;21.14;79.94
63899;HTU21D;50070;-32.946;-60.652;2024-03-06T08:31:45;21.13;79.42
63899;HTU21D;50070;-32.946;-60.652;2024-03-06T08:34:12;21.21;79.97
63899;HTU21D;50070;-32.946;-60.652;2024-03-06T08:36:38;21.20;77.50
63899;HTU21D;50070;-32.946;-60.652;2024-03-06T08:39:05;21.06;79.51
63899;HTU21D;50070;-32.946;-60.652;2024-03-06T08:41:32;20.93;77.85
63899;HTU21D;50070;-32.946;-60.652;2024-03-06T08:43:59;21.06;77.95
63899;HTU21D;50070;-32.946;-60.652;2024-03-06T08:46:26;21.06;77.65
63899;HTU21D;50070;-32.946;-60.652;2024-03-06T08:48:53;20.99;77.82
63899;HTU21D;50070;-32.946;-60.652;2024-03-06T08:51:19;20.68;80.54
63899;HTU21D;50070;-32.946;-60.652;2024-03-06T08:53:48;20.92;80.20
63899;HTU21D;50070;-32.946;-60.652;2024-03-06T08:56:14;20.87;81.13
63899;HTU21D;50070;-32.946;-60.652;2024-03-06T08:58:41;20.75;82.14
63899;HTU21D;50070;-32.946;-60.652;2024-03-06T09:01:08;20.70;82.07
63899;HTU21D;50070;-32.946;-60.652;2024-03-06T09:03:35;20.60;83.39
63899;HTU21D;50070;-32.946;-60.652;2024-03-06T09:06:01;20.70;83.85
63899;HTU21D;50070;-32.946;-60.652;2024-03-06T09:08:29;20.98;81.36
63899;HTU21D;50070;-32.946;-60.652;2024-03-06T09:10:56;20.76;82.29
63899;HTU21D;50070;-32.946;-60.652;2024-03-06T09:13:26;20.77;82.97
63899;HTU21D;50070;-32.946;-60.652;2024-03-06T09:15:52;20.66;83.69
63899;HTU21D;50070;-32.946;-60.652;2024-03-06T09:18:19;20.59;83.73
63899;HTU21D;50070;-32.946;-60.652;2024-03-06T09:20:46;20.71;83.33
63899;HTU21D;50070;-32.946;-60.652;2024-03-06T09:23:13;20.33;85.64
63899;HTU21D;50070;-32.946;-60.652;2024-03-06T09:25:41;20.54;85.02
63899;HTU21D;50070;-32.946;-60.652;2024-03-06T09:28:09;20.61;84.58
63899;HTU21D;50070;-32.946;-60.652;2024-03-06T09:30:35;20.41;86.12
63899;HTU21D;50070;-32.946;-60.652;2024-03-06T09:33:02;20.35;86.42
63899;HTU21D;50070;-32.946;-60.652;2024-03-06T09:35:29;20.51;86.03
63899;HTU21D;50070;-32.946;-60.652;2024-03-06T09:37:59;20.51;85.95
63899;HTU21D;50070;-32.946;-60.652;2024-03-06T09:40:27;20.48;85.84
63899;HTU21D;50070;-32.946;-60.652;2024-03-06T09:42:55;20.58;86.94
63899;HTU21D;50070;-32.946;-60.652;2024-03-06T09:45:22;20.75;84.69
63899;HTU21D;50070;-32.946;-60.652;2024-03-06T09:47:49;20.47;86.87
63899;HTU21D;50070;-32.946;-60.652;2024-03-06T09:50:23;20.45;88.19
63899;HTU21D;50070;-32.946;-60.652;2024-03-06T09:52:53;20.43;87.63
63899;HTU21D;50070;-32.946;-60.652;2024-03-06T09:55:21;20.68;85.39
63899;HTU21D;50070;-32.946;-60.652;2024-03-06T09:57:48;20.61;85.02
63899;HTU21D;50070;-32.946;-60.652;2024-03-06T10:00:16;20.42;85.61
63899;HTU21D;50070;-32.946;-60.652;2024-03-06T10:02:54;20.22;87.59
63899;HTU21D;50070;-32.946;-60.652;2024-03-06T10:05:24;20.18;87.61
63899;HTU21D;50070;-32.946;-60.652;2024-03-06T10:07:50;20.02;88.90
63899;HTU21D;50070;-32.946;-60.652;2024-03-06T10:10:19;20.20;89.01
63899;HTU21D;50070;-32.946;-60.652;2024-03-06T10:12:46;20.32;89.03
63899;HTU21D;50070;-32.946;-60.652;2024-03-06T10:15:16;20.26;88.02
63899;HTU21D;50070;-32.946;-60.652;2024-03-06T10:17:43;20.49;87.24
63899;HTU21D;50070;-32.946;-60.652;2024-03-06T10:20:22;20.46;86.79
63899;HTU21D;50070;-32.946;-60.652;2024-03-06T10:22:50;20.46;86.90
63899;HTU21D;50070;-32.946;-60.652;2024-03-06T10:25:22;20.44;86.03
63899;HTU21D;50070;-32.946;-60.652;2024-03-06T10:28:11;20.46;85.58
63899;HTU21D;50070;-32.946;-60.652;2024-03-06T10:30:39;20.54;84.94
63899;HTU21D;50070;-32.946;-60.652;2024-03-06T10:33:09;20.39;85.25
63899;HTU21D;50070;-32.946;-60.652;2024-03-06T10:35:37;20.51;85.53
63899;HTU21D;50070;-32.946;-60.652;2024-03-06T10:38:05;20.39;87.49
63899;HTU21D;50070;-32.946;-60.652;2024-03-06T10:40:36;20.56;85.07
63899;HTU21D;50070;-32.946;-60.652;2024-03-06T10:43:05;20.45;85.70
63899;HTU21D;50070;-32.946;-60.652;2024-03-06T10:45:48;20.43;85.42
63899;HTU21D;50070;-32.946;-60.652;2024-03-06T10:48:18;20.60;84.28
63899;HTU21D;50070;-32.946;-60.652;2024-03-06T10:50:49;20.55;83.10
63899;HTU21D;50070;-32.946;-60.652;2024-03-06T10:53:17;20.45;83.29
63899;HTU21D;50070;-32.946;-60.652;2024-03-06T10:55:50;20.33;84.08
63899;HTU21D;50070;-32.946;-60.652;2024-03-06T10:58:18;20.26;83.41
63899;HTU21D;50070;-32.946;-60.652;2024-03-06T11:00:47;20.40;83.97
63899;HTU21D;50070;-32.946;-60.652;2024-03-06T11:03:15;20.42;84.65
63899;HTU21D;50070;-32.946;-60.652;2024-03-06T11:05:43;20.65;83.60
63899;HTU21D;50070;-32.946;-60.652;2024-03-06T11:08:13;20.29;84.75
63899;HTU21D;50070;-32.946;-60.652;2024-03-06T11:10:41;20.16;83.72
63899;HTU21D;50070;-32.946;-60.652;2024-03-06T11:13:22;20.28;84.75
63899;HTU21D;50070;-32.946;-60.652;2024-03-06T11:15:51;20.42;82.75
63899;HTU21D;50070;-32.946;-60.652;2024-03-06T11:23:30;20.40;82.94
63899;HTU21D;50070;-32.946;-60.652;2024-03-06T11:28:36;20.73;82.19
63899;HTU21D;50070;-32.946;-60.652;2024-03-06T11:31:05;20.79;80.75
63899;HTU21D;50070;-32.946;-60.652;2024-03-06T11:33:40;20.74;81.43
63899;HTU21D;50070;-32.946;-60.652;2024-03-06T11:41:29;21.02;80.91
63899;HTU21D;50070;-32.946;-60.652;2024-03-06T11:43:59;21.20;79.82
63899;HTU21D;50070;-32.946;-60.652;2024-03-06T11:46:46;21.16;79.46
63899;HTU21D;50070;-32.946;-60.652;2024-03-06T11:49:18;20.98;81.18
63899;HTU21D;50070;-32.946;-60.652;2024-03-06T11:51:54;21.23;80.46
63899;HTU21D;50070;-32.946;-60.652;2024-03-06T11:54:22;21.01;79.86
63899;HTU21D;50070;-32.946;-60.652;2024-03-06T11:57:03;21.02;80.92
63899;HTU21D;50070;-32.946;-60.652;2024-03-06T11:59:35;21.42;79.67
63899;HTU21D;50070;-32.946;-60.652;2024-03-06T12:02:05;21.05;80.91
63899;HTU21D;50070;-32.946;-60.652;2024-03-06T12:04:33;21.06;81.20
63899;HTU21D;50070;-32.946;-60.652;2024-03-06T12:07:01;21.11;80.67
63899;HTU21D;50070;-32.946;-60.652;2024-03-06T12:09:35;21.21;79.36
63899;HTU21D;50070;-32.946;-60.652;2024-03-06T12:12:02;21.62;78.40
63899;HTU21D;50070;-32.946;-60.652;2024-03-06T12:14:29;21.76;78.79
63899;HTU21D;50070;-32.946;-60.652;2024-03-06T12:16:58;21.74;79.44
63899;HTU21D;50070;-32.946;-60.652;2024-03-06T12:19:32;21.76;80.81
63899;HTU21D;50070;-32.946;-60.652;2024-03-06T12:22:03;21.55;81.03
63899;HTU21D;50070;-32.946;-60.652;2024-03-06T12:24:31;21.84;79.39
63899;HTU21D;50070;-32.946;-60.652;2024-03-06T12:27:06;22.02;78.34
63899;HTU21D;50070;-32.946;-60.652;2024-03-06T12:29:34;21.96;77.47
63899;HTU21D;50070;-32.946;-60.652;2024-03-06T12:32:02;22.20;76.41
63899;HTU21D;50070;-32.946;-60.652;2024-03-06T12:34:29;22.13;75.56
63899;HTU21D;50070;-32.946;-60.652;2024-03-06T12:36:56;22.13;77.20
63899;HTU21D;50070;-32.946;-60.652;2024-03-06T12:39:23;22.18;77.26
63899;HTU21D;50070;-32.946;-60.652;2024-03-06T12:41:50;22.90;72.70
63899;HTU21D;50070;-32.946;-60.652;2024-03-06T12:44:19;22.62;72.25
63899;HTU21D;50070;-32.946;-60.652;2024-03-06T12:46:46;22.64;74.12
63899;HTU21D;50070;-32.946;-60.652;2024-03-06T12:49:12;22.49;74.89
63899;HTU21D;50070;-32.946;-60.652;2024-03-06T12:51:39;22.69;73.71
63899;HTU21D;50070;-32.946;-60.652;2024-03-06T12:54:06;22.88;73.15
63899;HTU21D;50070;-32.946;-60.652;2024-03-06T12:56:34;23.17;71.86
63899;HTU21D;50070;-32.946;-60.652;2024-03-06T12:59:02;22.92;71.97
63899;HTU21D;50070;-32.946;-60.652;2024-03-06T13:01:29;22.83;73.41
63899;HTU21D;50070;-32.946;-60.652;2024-03-06T13:03:56;23.16;70.32
63899;HTU21D;50070;-32.946;-60.652;2024-03-06T13:06:24;23.50;67.99
63899;HTU21D;50070;-32.946;-60.652;2024-03-06T13:08:51;23.41;66.20
63899;HTU21D;50070;-32.946;-60.652;2024-03-06T13:11:18;23.75;65.08
63899;HTU21D;50070;-32.946;-60.652;2024-03-06T13:13:45;23.88;64.99
63899;HTU21D;50070;-32.946;-60.652;2024-03-06T13:16:13;23.74;66.04
63899;HTU21D;50070;-32.946;-60.652;2024-03-06T13:18:40;24.00;62.66
63899;HTU21D;50070;-32.946;-60.652;2024-03-06T13:21:07;24.27;61.53
63899;HTU21D;50070;-32.946;-60.652;2024-03-06T13:23:33;24.18;61.76
63899;HTU21D;50070;-32.946;-60.652;2024-03-06T13:26:01;24.31;61.49
63899;HTU21D;50070;-32.946;-60.652;2024-03-06T13:28:27;23.88;65.02
63899;HTU21D;50070;-32.946;-60.652;2024-03-06T13:30:54;24.60;62.54
63899;HTU21D;50070;-32.946;-60.652;2024-03-06T13:33:21;24.88;62.50
63899;HTU21D;50070;-32.946;-60.652;2024-03-06T13:35:49;25.19;60.79
63899;HTU21D;50070;-32.946;-60.652;2024-03-06T13:38:16;24.94;60.31
63899;HTU21D;50070;-32.946;-60.652;2024-03-06T13:40:43;25.00;59.82
63899;HTU21D;50070;-32.946;-60.652;2024-03-06T13:43:10;25.29;59.44
63899;HTU21D;50070;-32.946;-60.652;2024-03-06T13:45:37;25.25;60.79
63899;HTU21D;50070;-32.946;-60.652;2024-03-06T13:48:13;25.04;61.62
63899;HTU21D;50070;-32.946;-60.652;2024-03-06T13:50:43;25.29;59.54
63899;HTU21D;50070;-32.946;-60.652;2024-03-06T13:53:13;25.32;58.71
63899;HTU21D;50070;-32.946;-60.652;2024-03-06T13:55:40;25.63;58.10
63899;HTU21D;50070;-32.946;-60.652;2024-03-06T13:58:07;25.53;59.90
63899;HTU21D;50070;-32.946;-60.652;2024-03-06T14:00:34;25.19;62.66
63899;HTU21D;50070;-32.946;-60.652;2024-03-06T14:03:01;25.66;61.03
63899;HTU21D;50070;-32.946;-60.652;2024-03-06T14:05:28;25.74;60.21
63899;HTU21D;50070;-32.946;-60.652;2024-03-06T14:07:55;26.33;56.76
63899;HTU21D;50070;-32.946;-60.652;2024-03-06T14:10:22;26.68;54.26
63899;HTU21D;50070;-32.946;-60.652;2024-03-06T14:12:50;27.35;51.50
63899;HTU21D;50070;-32.946;-60.652;2024-03-06T14:15:21;28.26;49.03
63899;HTU21D;50070;-32.946;-60.652;2024-03-06T14:17:49;29.46;45.53
63899;HTU21D;50070;-32.946;-60.652;2024-03-06T14:20:17;29.30;45.17
63899;HTU21D;50070;-32.946;-60.652;2024-03-06T14:22:44;29.67;44.83
63899;HTU21D;50070;-32.946;-60.652;2024-03-06T14:25:11;29.97;43.89
63899;HTU21D;50070;-32.946;-60.652;2024-03-06T14:27:38;29.87;44.16
63899;HTU21D;50070;-32.946;-60.652;2024-03-06T14:30:06;30.32;43.30
63899;HTU21D;50070;-32.946;-60.652;2024-03-06T14:32:40;29.03;46.57
63899;HTU21D;50070;-32.946;-60.652;2024-03-06T14:35:07;30.20;43.35
63899;HTU21D;50070;-32.946;-60.652;2024-03-06T14:37:34;30.64;42.46
63899;HTU21D;50070;-32.946;-60.652;2024-03-06T14:40:01;31.61;40.35
63899;HTU21D;50070;-32.946;-60.652;2024-03-06T14:42:32;31.14;41.38
63899;HTU21D;50070;-32.946;-60.652;2024-03-06T14:45:00;30.81;42.81
63899;HTU21D;50070;-32.946;-60.652;2024-03-06T14:47:27;30.38;43.28
63899;HTU21D;50070;-32.946;-60.652;2024-03-06T14:49:53;29.60;45.98
63899;HTU21D;50070;-32.946;-60.652;2024-03-06T14:52:20;28.79;48.33